sensor_id;sensor_type;location;lat;lon;timestamp;P1;durP1;ratioP1;P2;durP2;ratioP2
14268;SDS011;7218;51.480;7.006;2022-11-20T00:01:04;22.63;;;15.47;;
14268;SDS011;7218;51.480;7.006;2022-11-20T00:03:32;22.53;;;16.03;;
14268;SDS011;7218;51.480;7.006;2022-11-20T00:06:00;23.10;;;16.07;;
14268;SDS011;7218;51.480;7.006;2022-11-20T00:08:27;22.70;;;16.10;;
14268;SDS011;7218;51.480;7.006;2022-11-20T00:10:53;22.57;;;15.77;;
14268;SDS011;7218;51.480;7.006;2022-11-20T00:13:20;22.87;;;15.77;;
14268;SDS011;7218;51.480;7.006;2022-11-20T00:15:47;20.20;;;15.00;;
14268;SDS011;7218;51.480;7.006;2022-11-20T00:18:14;24.97;;;16.17;;
14268;SDS011;7218;51.480;7.006;2022-11-20T00:20:41;22.90;;;15.77;;
14268;SDS011;7218;51.480;7.006;2022-11-20T00:23:09;22.37;;;16.17;;
14268;SDS011;7218;51.480;7.006;2022-11-20T00:25:36;25.07;;;16.70;;
14268;SDS011;7218;51.480;7.006;2022-11-20T00:28:03;23.63;;;17.00;;
14268;SDS011;7218;51.480;7.006;2022-11-20T00:30:29;23.73;;;17.13;;
14268;SDS011;7218;51.480;7.006;2022-11-20T00:32:56;25.20;;;17.77;;
14268;SDS011;7218;51.480;7.006;2022-11-20T00:35:23;26.53;;;17.37;;
14268;SDS011;7218;51.480;7.006;2022-11-20T00:37:49;23.93;;;16.47;;
14268;SDS011;7218;51.480;7.006;2022-11-20T00:40:17;24.20;;;16.70;;
14268;SDS011;7218;51.480;7.006;2022-11-20T00:42:44;23.20;;;17.33;;
14268;SDS011;7218;51.480;7.006;2022-11-20T00:45:10;23.67;;;16.87;;
14268;SDS011;7218;51.480;7.006;2022-11-20T00:47:37;24.23;;;16.77;;
14268;SDS011;7218;51.480;7.006;2022-11-20T00:50:04;19.97;;;15.00;;
14268;SDS011;7218;51.480;7.006;2022-11-20T00:52:30;23.27;;;15.63;;
14268;SDS011;7218;51.480;7.006;2022-11-20T00:54:57;24.60;;;15.10;;
14268;SDS011;7218;51.480;7.006;2022-11-20T00:57:25;23.47;;;15.57;;
14268;SDS011;7218;51.480;7.006;2022-11-20T00:59:51;21.33;;;15.40;;
14268;SDS011;7218;51.480;7.006;2022-11-20T01:02:17;22.43;;;15.13;;
14268;SDS011;7218;51.480;7.006;2022-11-20T01:04:44;18.90;;;14.63;;
14268;SDS011;7218;51.480;7.006;2022-11-20T01:07:10;20.73;;;15.17;;
14268;SDS011;7218;51.480;7.006;2022-11-20T01:09:37;21.70;;;14.50;;
14268;SDS011;7218;51.480;7.006;2022-11-20T01:12:03;20.17;;;14.53;;
14268;SDS011;7218;51.480;7.006;2022-11-20T01:14:31;20.93;;;14.90;;
14268;SDS011;7218;51.480;7.006;2022-11-20T01:16:58;21.10;;;14.90;;
14268;SDS011;7218;51.480;7.006;2022-11-20T01:19:24;22.10;;;15.37;;
14268;SDS011;7218;51.480;7.006;2022-11-20T01:21:51;26.87;;;16.10;;
14268;SDS011;7218;51.480;7.006;2022-11-20T01:24:20;20.80;;;14.97;;
14268;SDS011;7218;51.480;7.006;2022-11-20T01:26:48;22.73;;;15.57;;
14268;SDS011;7218;51.480;7.006;2022-11-20T01:29:17;23.17;;;16.27;;
14268;SDS011;7218;51.480;7.006;2022-11-20T01:31:47;23.10;;;15.50;;
14268;SDS011;7218;51.480;7.006;2022-11-20T01:34:14;21.97;;;16.13;;
14268;SDS011;7218;51.480;7.006;2022-11-20T01:36:42;21.30;;;16.07;;
14268;SDS011;7218;51.480;7.006;2022-11-20T01:39:10;20.97;;;15.17;;
14268;SDS011;7218;51.480;7.006;2022-11-20T01:41:38;22.13;;;15.37;;
14268;SDS011;7218;51.480;7.006;2022-11-20T01:44:39;26.70;;;16.40;;
14268;SDS011;7218;51.480;7.006;2022-11-20T01:47:16;22.73;;;16.10;;
14268;SDS011;7218;51.480;7.006;2022-11-20T01:49:46;22.13;;;15.27;;
14268;SDS011;7218;51.480;7.006;2022-11-20T01:52:17;21.97;;;16.10;;
14268;SDS011;7218;51.480;7.006;2022-11-20T01:54:49;23.27;;;15.37;;
14268;SDS011;7218;51.480;7.006;2022-11-20T01:57:20;21.50;;;15.10;;
14268;SDS011;7218;51.480;7.006;2022-11-20T01:59:51;22.70;;;15.10;;
14268;SDS011;7218;51.480;7.006;2022-11-20T02:02:23;22.30;;;15.57;;
14268;SDS011;7218;51.480;7.006;2022-11-20T02:04:50;22.67;;;15.93;;
14268;SDS011;7218;51.480;7.006;2022-11-20T02:07:20;21.70;;;15.63;;
14268;SDS011;7218;51.480;7.006;2022-11-20T02:09:48;22.07;;;15.87;;
14268;SDS011;7218;51.480;7.006;2022-11-20T02:12:15;23.43;;;15.70;;
14268;SDS011;7218;51.480;7.006;2022-11-20T02:14:56;22.30;;;15.97;;
14268;SDS011;7218;51.480;7.006;2022-11-20T02:17:24;22.80;;;16.20;;
14268;SDS011;7218;51.480;7.006;2022-11-20T02:19:51;23.10;;;16.13;;
14268;SDS011;7218;51.480;7.006;2022-11-20T02:22:18;22.57;;;15.70;;
14268;SDS011;7218;51.480;7.006;2022-11-20T02:24:53;22.57;;;16.20;;
14268;SDS011;7218;51.480;7.006;2022-11-20T02:27:19;21.20;;;15.33;;
14268;SDS011;7218;51.480;7.006;2022-11-20T02:29:48;22.20;;;15.77;;
14268;SDS011;7218;51.480;7.006;2022-11-20T02:32:18;25.03;;;15.50;;
14268;SDS011;7218;51.480;7.006;2022-11-20T02:34:45;20.27;;;15.40;;
14268;SDS011;7218;51.480;7.006;2022-11-20T02:37:11;21.97;;;15.73;;
14268;SDS011;7218;51.480;7.006;2022-11-20T02:39:38;21.03;;;15.53;;
14268;SDS011;7218;51.480;7.006;2022-11-20T02:42:07;20.80;;;15.03;;
14268;SDS011;7218;51.480;7.006;2022-11-20T02:44:34;23.07;;;15.40;;
14268;SDS011;7218;51.480;7.006;2022-11-20T02:47:00;23.07;;;15.50;;
14268;SDS011;7218;51.480;7.006;2022-11-20T02:49:27;22.60;;;15.77;;
14268;SDS011;7218;51.480;7.006;2022-11-20T02:51:53;22.70;;;15.73;;
14268;SDS011;7218;51.480;7.006;2022-11-20T02:54:20;24.87;;;15.03;;
14268;SDS011;7218;51.480;7.006;2022-11-20T02:56:46;23.03;;;15.33;;
14268;SDS011;7218;51.480;7.006;2022-11-20T02:59:14;21.13;;;14.87;;
14268;SDS011;7218;51.480;7.006;2022-11-20T03:01:41;22.73;;;15.73;;
14268;SDS011;7218;51.480;7.006;2022-11-20T03:04:07;22.70;;;14.97;;
14268;SDS011;7218;51.480;7.006;2022-11-20T03:06:34;21.40;;;15.63;;
14268;SDS011;7218;51.480;7.006;2022-11-20T03:09:00;19.10;;;14.37;;
14268;SDS011;7218;51.480;7.006;2022-11-20T03:11:27;21.13;;;15.50;;
14268;SDS011;7218;51.480;7.006;2022-11-20T03:13:54;21.33;;;15.20;;
14268;SDS011;7218;51.480;7.006;2022-11-20T03:16:22;21.37;;;14.67;;
14268;SDS011;7218;51.480;7.006;2022-11-20T03:18:50;21.53;;;14.97;;
14268;SDS011;7218;51.480;7.006;2022-11-20T03:21:18;22.53;;;15.47;;
14268;SDS011;7218;51.480;7.006;2022-11-20T03:23:44;21.33;;;15.03;;
14268;SDS011;7218;51.480;7.006;2022-11-20T03:26:12;20.90;;;15.20;;
14268;SDS011;7218;51.480;7.006;2022-11-20T03:28:39;22.37;;;15.20;;
14268;SDS011;7218;51.480;7.006;2022-11-20T03:31:07;20.37;;;15.00;;
14268;SDS011;7218;51.480;7.006;2022-11-20T03:33:36;22.17;;;15.60;;
14268;SDS011;7218;51.480;7.006;2022-11-20T03:36:04;21.07;;;14.60;;
14268;SDS011;7218;51.480;7.006;2022-11-20T03:38:32;21.57;;;15.30;;
14268;SDS011;7218;51.480;7.006;2022-11-20T03:40:59;21.57;;;14.63;;
14268;SDS011;7218;51.480;7.006;2022-11-20T03:43:26;18.63;;;13.73;;
14268;SDS011;7218;51.480;7.006;2022-11-20T03:45:53;20.10;;;13.77;;
14268;SDS011;7218;51.480;7.006;2022-11-20T03:48:20;19.77;;;13.88;;
14268;SDS011;7218;51.480;7.006;2022-11-20T03:50:48;20.67;;;14.00;;
14268;SDS011;7218;51.480;7.006;2022-11-20T03:53:14;22.53;;;14.73;;
14268;SDS011;7218;51.480;7.006;2022-11-20T03:55:41;21.40;;;14.38;;
14268;SDS011;7218;51.480;7.006;2022-11-20T03:58:08;19.80;;;14.40;;
14268;SDS011;7218;51.480;7.006;2022-11-20T04:00:34;18.00;;;13.13;;
14268;SDS011;7218;51.480;7.006;2022-11-20T04:03:01;19.90;;;13.77;;
14268;SDS011;7218;51.480;7.006;2022-11-20T04:05:28;19.87;;;14.10;;
14268;SDS011;7218;51.480;7.006;2022-11-20T04:07:56;19.17;;;13.77;;
14268;SDS011;7218;51.480;7.006;2022-11-20T04:10:23;18.27;;;13.80;;
14268;SDS011;7218;51.480;7.006;2022-11-20T04:12:50;20.15;;;14.40;;
14268;SDS011;7218;51.480;7.006;2022-11-20T04:15:16;19.65;;;14.50;;
14268;SDS011;7218;51.480;7.006;2022-11-20T04:17:43;18.75;;;14.00;;
14268;SDS011;7218;51.480;7.006;2022-11-20T04:20:09;21.37;;;13.90;;
14268;SDS011;7218;51.480;7.006;2022-11-20T04:22:36;18.83;;;13.73;;
14268;SDS011;7218;51.480;7.006;2022-11-20T04:25:04;18.80;;;14.17;;
14268;SDS011;7218;51.480;7.006;2022-11-20T04:27:31;18.35;;;13.73;;
14268;SDS011;7218;51.480;7.006;2022-11-20T04:29:57;18.80;;;13.97;;
14268;SDS011;7218;51.480;7.006;2022-11-20T04:32:23;20.02;;;14.07;;
14268;SDS011;7218;51.480;7.006;2022-11-20T04:34:50;19.00;;;14.33;;
14268;SDS011;7218;51.480;7.006;2022-11-20T04:37:16;22.10;;;15.30;;
14268;SDS011;7218;51.480;7.006;2022-11-20T04:39:43;17.47;;;13.80;;
14268;SDS011;7218;51.480;7.006;2022-11-20T04:42:11;19.80;;;14.37;;
14268;SDS011;7218;51.480;7.006;2022-11-20T04:44:55;18.50;;;14.10;;
14268;SDS011;7218;51.480;7.006;2022-11-20T04:47:22;18.70;;;13.80;;
14268;SDS011;7218;51.480;7.006;2022-11-20T04:49:48;18.67;;;13.73;;
14268;SDS011;7218;51.480;7.006;2022-11-20T04:52:15;19.80;;;14.67;;
14268;SDS011;7218;51.480;7.006;2022-11-20T04:54:41;19.57;;;14.60;;
14268;SDS011;7218;51.480;7.006;2022-11-20T04:57:08;19.65;;;14.02;;
14268;SDS011;7218;51.480;7.006;2022-11-20T04:59:36;22.40;;;14.57;;
14268;SDS011;7218;51.480;7.006;2022-11-20T05:02:02;21.93;;;14.33;;
14268;SDS011;7218;51.480;7.006;2022-11-20T05:04:28;19.10;;;13.97;;
14268;SDS011;7218;51.480;7.006;2022-11-20T05:06:55;21.83;;;14.50;;
14268;SDS011;7218;51.480;7.006;2022-11-20T05:09:21;19.93;;;13.83;;
14268;SDS011;7218;51.480;7.006;2022-11-20T05:11:48;26.03;;;14.73;;
14268;SDS011;7218;51.480;7.006;2022-11-20T05:14:14;19.60;;;14.40;;
14268;SDS011;7218;51.480;7.006;2022-11-20T05:16:42;21.67;;;14.83;;
14268;SDS011;7218;51.480;7.006;2022-11-20T05:19:09;19.87;;;14.83;;
14268;SDS011;7218;51.480;7.006;2022-11-20T05:21:35;21.43;;;14.90;;
14268;SDS011;7218;51.480;7.006;2022-11-20T05:24:02;20.03;;;14.33;;
14268;SDS011;7218;51.480;7.006;2022-11-20T05:26:29;19.33;;;14.37;;
14268;SDS011;7218;51.480;7.006;2022-11-20T05:28:56;19.83;;;14.67;;
14268;SDS011;7218;51.480;7.006;2022-11-20T05:31:23;20.00;;;14.43;;
14268;SDS011;7218;51.480;7.006;2022-11-20T05:33:52;19.80;;;14.43;;
14268;SDS011;7218;51.480;7.006;2022-11-20T05:36:18;18.53;;;14.47;;
14268;SDS011;7218;51.480;7.006;2022-11-20T05:38:45;21.43;;;14.37;;
14268;SDS011;7218;51.480;7.006;2022-11-20T05:41:12;19.87;;;14.67;;
14268;SDS011;7218;51.480;7.006;2022-11-20T05:43:41;19.73;;;14.20;;
14268;SDS011;7218;51.480;7.006;2022-11-20T05:46:09;20.43;;;13.77;;
14268;SDS011;7218;51.480;7.006;2022-11-20T05:48:37;21.30;;;14.95;;
14268;SDS011;7218;51.480;7.006;2022-11-20T05:51:07;22.70;;;15.23;;
14268;SDS011;7218;51.480;7.006;2022-11-20T05:53:35;20.33;;;14.77;;
14268;SDS011;7218;51.480;7.006;2022-11-20T05:56:02;18.37;;;14.30;;
14268;SDS011;7218;51.480;7.006;2022-11-20T05:58:31;19.33;;;14.60;;
14268;SDS011;7218;51.480;7.006;2022-11-20T06:01:02;20.30;;;14.63;;
14268;SDS011;7218;51.480;7.006;2022-11-20T06:03:30;21.50;;;15.23;;
14268;SDS011;7218;51.480;7.006;2022-11-20T06:05:58;21.40;;;14.10;;
14268;SDS011;7218;51.480;7.006;2022-11-20T06:08:26;21.83;;;14.55;;
14268;SDS011;7218;51.480;7.006;2022-11-20T06:10:52;20.20;;;14.45;;
14268;SDS011;7218;51.480;7.006;2022-11-20T06:13:19;20.30;;;14.68;;
14268;SDS011;7218;51.480;7.006;2022-11-20T06:15:47;18.97;;;14.23;;
14268;SDS011;7218;51.480;7.006;2022-11-20T06:18:14;20.00;;;14.52;;
14268;SDS011;7218;51.480;7.006;2022-11-20T06:20:41;22.98;;;14.30;;
14268;SDS011;7218;51.480;7.006;2022-11-20T06:23:07;20.48;;;15.05;;
14268;SDS011;7218;51.480;7.006;2022-11-20T06:25:37;20.95;;;14.50;;
14268;SDS011;7218;51.480;7.006;2022-11-20T06:28:04;20.13;;;14.60;;
14268;SDS011;7218;51.480;7.006;2022-11-20T06:30:31;22.98;;;15.63;;
14268;SDS011;7218;51.480;7.006;2022-11-20T06:32:57;21.60;;;14.93;;
14268;SDS011;7218;51.480;7.006;2022-11-20T06:35:23;19.63;;;14.57;;
14268;SDS011;7218;51.480;7.006;2022-11-20T06:37:50;20.65;;;14.68;;
14268;SDS011;7218;51.480;7.006;2022-11-20T06:40:17;20.58;;;15.23;;
14268;SDS011;7218;51.480;7.006;2022-11-20T06:42:44;20.47;;;15.07;;
14268;SDS011;7218;51.480;7.006;2022-11-20T06:45:11;19.80;;;14.37;;
14268;SDS011;7218;51.480;7.006;2022-11-20T06:47:37;19.30;;;14.55;;
14268;SDS011;7218;51.480;7.006;2022-11-20T06:50:04;21.97;;;14.90;;
14268;SDS011;7218;51.480;7.006;2022-11-20T06:52:31;20.92;;;14.77;;
14268;SDS011;7218;51.480;7.006;2022-11-20T06:54:58;21.17;;;15.40;;
14268;SDS011;7218;51.480;7.006;2022-11-20T06:57:25;20.35;;;14.43;;
14268;SDS011;7218;51.480;7.006;2022-11-20T06:59:52;21.00;;;15.50;;
14268;SDS011;7218;51.480;7.006;2022-11-20T07:02:19;22.63;;;14.67;;
14268;SDS011;7218;51.480;7.006;2022-11-20T07:04:45;21.10;;;15.57;;
14268;SDS011;7218;51.480;7.006;2022-11-20T07:07:12;21.65;;;15.13;;
14268;SDS011;7218;51.480;7.006;2022-11-20T07:09:38;21.03;;;15.30;;
14268;SDS011;7218;51.480;7.006;2022-11-20T07:12:05;23.48;;;15.90;;
14268;SDS011;7218;51.480;7.006;2022-11-20T07:14:32;19.63;;;15.00;;
14268;SDS011;7218;51.480;7.006;2022-11-20T07:16:59;20.23;;;14.93;;
14268;SDS011;7218;51.480;7.006;2022-11-20T07:19:26;21.70;;;15.98;;
14268;SDS011;7218;51.480;7.006;2022-11-20T07:21:52;22.90;;;15.07;;
14268;SDS011;7218;51.480;7.006;2022-11-20T07:24:19;19.97;;;14.80;;
14268;SDS011;7218;51.480;7.006;2022-11-20T07:26:46;20.40;;;15.70;;
14268;SDS011;7218;51.480;7.006;2022-11-20T07:29:14;23.20;;;15.87;;
14268;SDS011;7218;51.480;7.006;2022-11-20T07:31:41;22.80;;;16.17;;
14268;SDS011;7218;51.480;7.006;2022-11-20T07:34:09;19.87;;;15.10;;
14268;SDS011;7218;51.480;7.006;2022-11-20T07:36:36;23.42;;;15.35;;
14268;SDS011;7218;51.480;7.006;2022-11-20T07:39:02;20.60;;;14.73;;
14268;SDS011;7218;51.480;7.006;2022-11-20T07:41:29;22.33;;;15.90;;
14268;SDS011;7218;51.480;7.006;2022-11-20T07:43:56;26.43;;;15.93;;
14268;SDS011;7218;51.480;7.006;2022-11-20T07:46:22;21.07;;;15.50;;
14268;SDS011;7218;51.480;7.006;2022-11-20T07:48:49;21.77;;;15.87;;
14268;SDS011;7218;51.480;7.006;2022-11-20T07:51:17;20.53;;;15.23;;
14268;SDS011;7218;51.480;7.006;2022-11-20T07:53:43;22.63;;;16.03;;
14268;SDS011;7218;51.480;7.006;2022-11-20T07:56:09;26.00;;;17.90;;
14268;SDS011;7218;51.480;7.006;2022-11-20T07:58:36;23.03;;;17.97;;
14268;SDS011;7218;51.480;7.006;2022-11-20T08:01:03;23.50;;;17.73;;
14268;SDS011;7218;51.480;7.006;2022-11-20T08:03:30;24.48;;;17.67;;
14268;SDS011;7218;51.480;7.006;2022-11-20T08:05:58;23.27;;;17.15;;
14268;SDS011;7218;51.480;7.006;2022-11-20T08:08:26;24.40;;;17.67;;
14268;SDS011;7218;51.480;7.006;2022-11-20T08:10:53;22.50;;;16.27;;
14268;SDS011;7218;51.480;7.006;2022-11-20T08:13:40;21.77;;;15.93;;
14268;SDS011;7218;51.480;7.006;2022-11-20T08:16:24;20.07;;;15.73;;
14268;SDS011;7218;51.480;7.006;2022-11-20T08:18:51;22.27;;;15.90;;
14268;SDS011;7218;51.480;7.006;2022-11-20T08:21:17;20.27;;;16.00;;
14268;SDS011;7218;51.480;7.006;2022-11-20T08:23:45;21.27;;;15.93;;
14268;SDS011;7218;51.480;7.006;2022-11-20T08:26:11;24.52;;;16.50;;
14268;SDS011;7218;51.480;7.006;2022-11-20T08:28:38;22.50;;;16.50;;
14268;SDS011;7218;51.480;7.006;2022-11-20T08:31:04;21.20;;;16.40;;
14268;SDS011;7218;51.480;7.006;2022-11-20T08:33:31;21.92;;;16.25;;
14268;SDS011;7218;51.480;7.006;2022-11-20T08:35:59;23.05;;;16.10;;
14268;SDS011;7218;51.480;7.006;2022-11-20T08:38:26;21.80;;;15.60;;
14268;SDS011;7218;51.480;7.006;2022-11-20T08:40:56;21.23;;;15.50;;
14268;SDS011;7218;51.480;7.006;2022-11-20T08:43:41;23.67;;;16.60;;
14268;SDS011;7218;51.480;7.006;2022-11-20T08:46:08;21.38;;;15.65;;
14268;SDS011;7218;51.480;7.006;2022-11-20T08:48:35;22.10;;;16.73;;
14268;SDS011;7218;51.480;7.006;2022-11-20T08:51:01;20.50;;;15.93;;
14268;SDS011;7218;51.480;7.006;2022-11-20T08:53:28;22.10;;;16.35;;
14268;SDS011;7218;51.480;7.006;2022-11-20T08:55:57;22.27;;;16.88;;
14268;SDS011;7218;51.480;7.006;2022-11-20T08:58:24;25.70;;;18.33;;
14268;SDS011;7218;51.480;7.006;2022-11-20T09:00:51;25.23;;;18.90;;
14268;SDS011;7218;51.480;7.006;2022-11-20T09:03:17;25.23;;;18.75;;
14268;SDS011;7218;51.480;7.006;2022-11-20T09:05:44;24.98;;;18.70;;
14268;SDS011;7218;51.480;7.006;2022-11-20T09:08:10;25.63;;;19.23;;
14268;SDS011;7218;51.480;7.006;2022-11-20T09:10:37;25.92;;;19.25;;
14268;SDS011;7218;51.480;7.006;2022-11-20T09:13:06;27.35;;;18.85;;
14268;SDS011;7218;51.480;7.006;2022-11-20T09:15:33;28.95;;;19.25;;
14268;SDS011;7218;51.480;7.006;2022-11-20T09:18:00;25.55;;;19.73;;
14268;SDS011;7218;51.480;7.006;2022-11-20T09:20:28;27.92;;;19.55;;
14268;SDS011;7218;51.480;7.006;2022-11-20T09:22:56;28.27;;;20.48;;
14268;SDS011;7218;51.480;7.006;2022-11-20T09:25:22;27.55;;;20.50;;
14268;SDS011;7218;51.480;7.006;2022-11-20T09:27:54;26.77;;;19.70;;
14268;SDS011;7218;51.480;7.006;2022-11-20T09:30:22;25.58;;;19.23;;
14268;SDS011;7218;51.480;7.006;2022-11-20T09:32:49;25.02;;;18.90;;
14268;SDS011;7218;51.480;7.006;2022-11-20T09:35:15;27.38;;;19.38;;
14268;SDS011;7218;51.480;7.006;2022-11-20T09:37:42;26.73;;;19.33;;
14268;SDS011;7218;51.480;7.006;2022-11-20T09:40:09;27.80;;;19.40;;
14268;SDS011;7218;51.480;7.006;2022-11-20T09:42:46;25.25;;;19.98;;
14268;SDS011;7218;51.480;7.006;2022-11-20T09:45:23;27.98;;;19.77;;
14268;SDS011;7218;51.480;7.006;2022-11-20T09:48:03;27.35;;;18.70;;
14268;SDS011;7218;51.480;7.006;2022-11-20T09:50:42;31.45;;;20.77;;
14268;SDS011;7218;51.480;7.006;2022-11-20T09:53:13;26.20;;;20.30;;
14268;SDS011;7218;51.480;7.006;2022-11-20T09:55:48;26.23;;;19.98;;
14268;SDS011;7218;51.480;7.006;2022-11-20T09:58:16;29.10;;;21.55;;
14268;SDS011;7218;51.480;7.006;2022-11-20T10:00:53;25.33;;;19.23;;
14268;SDS011;7218;51.480;7.006;2022-11-20T10:03:22;26.23;;;19.20;;
14268;SDS011;7218;51.480;7.006;2022-11-20T10:06:01;29.83;;;20.70;;
14268;SDS011;7218;51.480;7.006;2022-11-20T10:08:30;28.65;;;19.90;;
14268;SDS011;7218;51.480;7.006;2022-11-20T10:11:05;24.70;;;18.55;;
14268;SDS011;7218;51.480;7.006;2022-11-20T10:13:40;22.17;;;17.35;;
14268;SDS011;7218;51.480;7.006;2022-11-20T10:16:21;22.08;;;16.95;;
14268;SDS011;7218;51.480;7.006;2022-11-20T10:19:00;17.00;;;13.90;;
14268;SDS011;7218;51.480;7.006;2022-11-20T10:21:36;17.00;;;13.75;;
14268;SDS011;7218;51.480;7.006;2022-11-20T10:24:24;17.02;;;12.00;;
14268;SDS011;7218;51.480;7.006;2022-11-20T10:27:17;14.30;;;11.55;;
14268;SDS011;7218;51.480;7.006;2022-11-20T10:29:56;13.07;;;10.52;;
14268;SDS011;7218;51.480;7.006;2022-11-20T10:32:30;12.90;;;10.80;;
14268;SDS011;7218;51.480;7.006;2022-11-20T10:35:04;12.52;;;10.20;;
14268;SDS011;7218;51.480;7.006;2022-11-20T10:37:41;12.27;;;10.40;;
14268;SDS011;7218;51.480;7.006;2022-11-20T10:40:17;10.20;;;9.00;;
14268;SDS011;7218;51.480;7.006;2022-11-20T10:42:49;12.15;;;8.68;;
14268;SDS011;7218;51.480;7.006;2022-11-20T10:45:21;11.00;;;8.68;;
14268;SDS011;7218;51.480;7.006;2022-11-20T10:48:04;10.07;;;8.25;;
14268;SDS011;7218;51.480;7.006;2022-11-20T10:50:38;11.77;;;9.13;;
14268;SDS011;7218;51.480;7.006;2022-11-20T10:53:14;10.55;;;8.80;;
14268;SDS011;7218;51.480;7.006;2022-11-20T10:55:50;12.02;;;8.82;;
14268;SDS011;7218;51.480;7.006;2022-11-20T10:58:24;11.98;;;8.88;;
14268;SDS011;7218;51.480;7.006;2022-11-20T11:01:04;12.10;;;8.63;;
14268;SDS011;7218;51.480;7.006;2022-11-20T11:03:32;12.27;;;8.95;;
14268;SDS011;7218;51.480;7.006;2022-11-20T11:06:00;12.55;;;9.30;;
14268;SDS011;7218;51.480;7.006;2022-11-20T11:08:34;13.07;;;9.90;;
14268;SDS011;7218;51.480;7.006;2022-11-20T11:11:07;11.45;;;8.57;;
14268;SDS011;7218;51.480;7.006;2022-11-20T11:13:44;13.80;;;9.35;;
14268;SDS011;7218;51.480;7.006;2022-11-20T11:16:16;13.05;;;9.85;;
14268;SDS011;7218;51.480;7.006;2022-11-20T11:18:48;15.48;;;10.98;;
14268;SDS011;7218;51.480;7.006;2022-11-20T11:21:19;15.15;;;10.65;;
14268;SDS011;7218;51.480;7.006;2022-11-20T11:23:56;15.75;;;10.68;;
14268;SDS011;7218;51.480;7.006;2022-11-20T11:26:24;14.32;;;10.90;;
14268;SDS011;7218;51.480;7.006;2022-11-20T11:28:54;15.07;;;11.68;;
14268;SDS011;7218;51.480;7.006;2022-11-20T11:31:22;15.13;;;11.68;;
14268;SDS011;7218;51.480;7.006;2022-11-20T11:33:51;14.80;;;11.50;;
14268;SDS011;7218;51.480;7.006;2022-11-20T11:36:19;15.15;;;11.35;;
14268;SDS011;7218;51.480;7.006;2022-11-20T11:38:50;16.50;;;12.40;;
14268;SDS011;7218;51.480;7.006;2022-11-20T11:41:19;15.85;;;11.70;;
14268;SDS011;7218;51.480;7.006;2022-11-20T11:43:52;15.15;;;10.88;;
14268;SDS011;7218;51.480;7.006;2022-11-20T11:46:37;13.23;;;10.32;;
14268;SDS011;7218;51.480;7.006;2022-11-20T11:49:16;15.05;;;10.95;;
14268;SDS011;7218;51.480;7.006;2022-11-20T11:51:47;14.57;;;11.20;;
14268;SDS011;7218;51.480;7.006;2022-11-20T11:54:25;15.20;;;11.20;;
14268;SDS011;7218;51.480;7.006;2022-11-20T11:56:57;15.75;;;12.05;;
14268;SDS011;7218;51.480;7.006;2022-11-20T11:59:27;15.55;;;11.30;;
14268;SDS011;7218;51.480;7.006;2022-11-20T12:02:04;15.88;;;10.95;;
14268;SDS011;7218;51.480;7.006;2022-11-20T12:04:50;14.18;;;11.15;;
14268;SDS011;7218;51.480;7.006;2022-11-20T12:07:22;14.25;;;10.68;;
14268;SDS011;7218;51.480;7.006;2022-11-20T12:10:02;15.40;;;11.15;;
14268;SDS011;7218;51.480;7.006;2022-11-20T12:12:30;17.92;;;11.32;;
14268;SDS011;7218;51.480;7.006;2022-11-20T12:15:02;14.35;;;10.77;;
14268;SDS011;7218;51.480;7.006;2022-11-20T12:17:30;17.88;;;12.45;;
14268;SDS011;7218;51.480;7.006;2022-11-20T12:19:58;15.35;;;11.75;;
14268;SDS011;7218;51.480;7.006;2022-11-20T12:22:27;16.30;;;11.18;;
14268;SDS011;7218;51.480;7.006;2022-11-20T12:25:06;13.93;;;11.15;;
14268;SDS011;7218;51.480;7.006;2022-11-20T12:30:35;15.25;;;12.02;;
14268;SDS011;7218;51.480;7.006;2022-11-20T12:33:12;17.25;;;11.93;;
14268;SDS011;7218;51.480;7.006;2022-11-20T12:35:59;15.32;;;12.13;;
14268;SDS011;7218;51.480;7.006;2022-11-20T12:41:27;17.42;;;11.90;;
14268;SDS011;7218;51.480;7.006;2022-11-20T12:44:28;15.45;;;11.60;;
14268;SDS011;7218;51.480;7.006;2022-11-20T12:47:28;15.68;;;11.55;;
14268;SDS011;7218;51.480;7.006;2022-11-20T12:50:06;17.83;;;12.90;;
14268;SDS011;7218;51.480;7.006;2022-11-20T12:52:42;18.17;;;13.02;;
14268;SDS011;7218;51.480;7.006;2022-11-20T12:55:25;16.48;;;12.02;;
14268;SDS011;7218;51.480;7.006;2022-11-20T12:58:00;18.50;;;13.15;;
14268;SDS011;7218;51.480;7.006;2022-11-20T13:00:35;19.50;;;12.98;;
14268;SDS011;7218;51.480;7.006;2022-11-20T13:03:14;18.55;;;12.52;;
14268;SDS011;7218;51.480;7.006;2022-11-20T13:05:54;16.05;;;12.32;;
14268;SDS011;7218;51.480;7.006;2022-11-20T13:08:27;18.02;;;12.85;;
14268;SDS011;7218;51.480;7.006;2022-11-20T13:10:59;18.13;;;12.43;;
14268;SDS011;7218;51.480;7.006;2022-11-20T13:13:34;16.98;;;12.63;;
14268;SDS011;7218;51.480;7.006;2022-11-20T13:16:10;16.73;;;12.43;;
14268;SDS011;7218;51.480;7.006;2022-11-20T13:18:43;16.85;;;12.40;;
14268;SDS011;7218;51.480;7.006;2022-11-20T13:21:14;17.23;;;13.05;;
14268;SDS011;7218;51.480;7.006;2022-11-20T13:23:46;19.55;;;13.50;;
14268;SDS011;7218;51.480;7.006;2022-11-20T13:26:17;19.38;;;13.65;;
14268;SDS011;7218;51.480;7.006;2022-11-20T13:28:46;17.35;;;13.02;;
14268;SDS011;7218;51.480;7.006;2022-11-20T13:34:11;20.13;;;13.02;;
14268;SDS011;7218;51.480;7.006;2022-11-20T13:36:48;18.38;;;13.38;;
14268;SDS011;7218;51.480;7.006;2022-11-20T13:39:25;18.70;;;13.73;;
14268;SDS011;7218;51.480;7.006;2022-11-20T13:41:53;19.08;;;13.85;;
14268;SDS011;7218;51.480;7.006;2022-11-20T13:44:23;17.75;;;13.40;;
14268;SDS011;7218;51.480;7.006;2022-11-20T13:46:53;17.30;;;13.07;;
14268;SDS011;7218;51.480;7.006;2022-11-20T13:49:23;19.98;;;14.02;;
14268;SDS011;7218;51.480;7.006;2022-11-20T13:51:55;19.20;;;13.40;;
14268;SDS011;7218;51.480;7.006;2022-11-20T13:57:27;21.27;;;14.70;;
14268;SDS011;7218;51.480;7.006;2022-11-20T14:00:16;21.83;;;14.75;;
14268;SDS011;7218;51.480;7.006;2022-11-20T14:02:44;18.23;;;13.77;;
14268;SDS011;7218;51.480;7.006;2022-11-20T14:05:26;20.55;;;14.55;;
14268;SDS011;7218;51.480;7.006;2022-11-20T14:07:52;19.92;;;14.80;;
14268;SDS011;7218;51.480;7.006;2022-11-20T14:10:22;19.83;;;14.95;;
14268;SDS011;7218;51.480;7.006;2022-11-20T14:12:50;19.95;;;14.88;;
14268;SDS011;7218;51.480;7.006;2022-11-20T14:15:25;21.48;;;15.73;;
14268;SDS011;7218;51.480;7.006;2022-11-20T14:17:54;19.42;;;14.55;;
14268;SDS011;7218;51.480;7.006;2022-11-20T14:20:22;22.67;;;14.75;;
14268;SDS011;7218;51.480;7.006;2022-11-20T14:22:52;21.30;;;15.65;;
14268;SDS011;7218;51.480;7.006;2022-11-20T14:25:19;22.13;;;15.23;;
14268;SDS011;7218;51.480;7.006;2022-11-20T14:27:52;21.23;;;15.40;;
14268;SDS011;7218;51.480;7.006;2022-11-20T14:30:20;21.20;;;16.17;;
14268;SDS011;7218;51.480;7.006;2022-11-20T14:32:48;21.35;;;15.57;;
14268;SDS011;7218;51.480;7.006;2022-11-20T14:35:18;22.48;;;16.15;;
14268;SDS011;7218;51.480;7.006;2022-11-20T14:37:51;22.35;;;16.30;;
14268;SDS011;7218;51.480;7.006;2022-11-20T14:40:23;23.45;;;16.63;;
14268;SDS011;7218;51.480;7.006;2022-11-20T14:42:52;24.25;;;16.63;;
14268;SDS011;7218;51.480;7.006;2022-11-20T14:45:19;21.95;;;15.93;;
14268;SDS011;7218;51.480;7.006;2022-11-20T14:47:47;22.25;;;15.85;;
14268;SDS011;7218;51.480;7.006;2022-11-20T14:50:16;21.58;;;16.25;;
14268;SDS011;7218;51.480;7.006;2022-11-20T14:52:50;21.63;;;15.77;;
14268;SDS011;7218;51.480;7.006;2022-11-20T14:55:29;22.90;;;16.27;;
14268;SDS011;7218;51.480;7.006;2022-11-20T14:57:58;23.33;;;17.02;;
14268;SDS011;7218;51.480;7.006;2022-11-20T15:00:28;25.73;;;17.02;;
14268;SDS011;7218;51.480;7.006;2022-11-20T15:02:56;24.50;;;16.20;;